Time;durP1;ratioP1;P1;durP2;ratioP2;P2;SDS_P1;SDS_P2;PMS_P1;PMS_P2;Temp;Humidity;BMP_temperature;BMP_pressure;BME280_temperature;BME280_humidity;BME280_pressure;Samples;Min_cycle;Max_cycle;Signal;HPM_P1;HPM_P2
2022/01/26 00:06:42;;;;;;;34.67;15.75;;;;;;;2.36;92.59;101486.59;5046776;28;20103;-85
2022/01/26 00:09:09;;;;;;;32.60;15.20;;;;;;;2.32;92.36;101484.94;5055240;28;20044;-86
2022/01/26 00:11:36;;;;;;;34.13;14.10;;;;;;;2.28;92.65;101488.44;5040247;28;20133;-86
2022/01/26 00:14:03;;;;;;;35.00;15.10;;;;;;;2.28;92.54;101487.59;5052011;28;20037;-86
2022/01/26 00:16:42;;;;;;;35.38;15.68;;;;;;;2.28;91.86;101482.41;5063783;28;20109;-86
2022/01/26 00:19:16;;;;;;;32.85;15.18;;;;;;;2.28;92.32;101483.25;5071629;28;20071;-86
2022/01/26 00:21:49;;;;;;;34.20;14.55;;;;;;;2.27;92.45;101484.16;5075008;28;20031;-86
2022/01/26 00:29:31;;;;;;;30.52;13.32;;;;;;;2.28;92.34;101487.59;5075630;28;20041;-86
2022/01/26 00:40:12;;;;;;;31.55;14.15;;;;;;;2.13;92.82;101486.06;5051164;28;20036;-86
2022/01/26 00:42:40;;;;;;;29.88;13.38;;;;;;;2.12;92.28;101482.63;5054723;28;20094;-85
2022/01/26 00:45:07;;;;;;;26.17;11.88;;;;;;;2.15;92.31;101487.75;5053904;28;20162;-86
2022/01/26 00:47:33;;;;;;;28.90;12.73;;;;;;;2.10;92.57;101483.50;5054383;28;20041;-86
2022/01/26 00:50:03;;;;;;;26.98;13.40;;;;;;;2.12;92.21;101482.63;5054246;28;20037;-86
2022/01/26 00:52:43;;;;;;;31.70;13.55;;;;;;;2.14;92.59;101473.09;5056045;28;20045;-85
2022/01/26 00:55:15;;;;;;;28.50;12.80;;;;;;;2.06;92.33;101469.75;5055578;28;20079;-84
2022/01/26 00:57:42;;;;;;;26.20;12.50;;;;;;;2.12;92.67;101477.44;5056384;28;20031;-84
2022/01/26 01:00:17;;;;;;;26.90;13.18;;;;;;;2.05;92.20;101470.63;5055572;28;20029;-85
2022/01/26 01:02:43;;;;;;;33.38;13.32;;;;;;;2.07;92.26;101461.09;5053579;28;20488;-85
2022/01/26 01:05:26;;;;;;;25.60;11.63;;;;;;;2.09;91.94;101456.78;5049658;28;20041;-85
2022/01/26 01:07:57;;;;;;;29.98;12.60;;;;;;;2.15;91.64;101448.06;5050454;28;20444;-85
2022/01/26 01:10:24;;;;;;;29.02;13.32;;;;;;;2.19;91.81;101454.94;5052911;28;20064;-86
2022/01/26 01:12:58;;;;;;;23.70;11.35;;;;;;;2.22;91.21;101454.00;5055130;28;20104;-86
2022/01/26 01:15:26;;;;;;;27.67;11.68;;;;;;;2.19;91.41;101454.94;5047960;28;20041;-86
2022/01/26 01:17:57;;;;;;;27.75;11.75;;;;;;;2.22;90.95;101448.84;5059830;28;20037;-86
2022/01/26 01:31:01;;;;;;;23.80;11.60;;;;;;;2.23;90.64;101450.56;5055063;28;20174;-85
2022/01/26 01:33:33;;;;;;;26.55;11.85;;;;;;;2.20;90.91;101454.06;5052437;28;20044;-84
2022/01/26 01:36:00;;;;;;;24.85;11.38;;;;;;;2.17;91.06;101459.25;5039268;28;20041;-85
2022/01/26 01:38:28;;;;;;;26.25;13.40;;;;;;;2.16;90.81;101457.56;5040965;28;20044;-85
2022/01/26 01:40:54;;;;;;;27.83;13.18;;;;;;;2.19;91.17;101465.28;5055800;28;20100;-85
2022/01/26 01:43:24;;;;;;;28.88;12.32;;;;;;;2.18;91.01;101466.13;5052933;28;20512;-86
2022/01/26 01:45:52;;;;;;;27.95;13.00;;;;;;;2.15;90.77;101464.47;5052762;28;20445;-85
2022/01/26 01:48:25;;;;;;;25.58;12.18;;;;;;;2.14;91.54;101454.97;5053421;28;20680;-85
2022/01/26 01:50:53;;;;;;;27.02;13.38;;;;;;;2.13;91.75;101458.44;5054042;28;20045;-86
2022/01/26 01:53:30;;;;;;;30.08;13.93;;;;;;;2.09;91.74;101471.44;5048716;28;20029;-86
2022/01/26 01:55:56;;;;;;;27.90;12.60;;;;;;;2.05;91.35;101473.22;5052225;28;20442;-86
2022/01/26 01:58:21;;;;;;;29.85;13.48;;;;;;;2.05;91.35;101468.03;5051676;28;20029;-85
2022/01/26 02:00:47;;;;;;;26.52;13.15;;;;;;;2.08;90.90;101464.56;5049966;28;20056;-85
2022/01/26 02:03:12;;;;;;;28.00;13.63;;;;;;;2.10;90.36;101473.16;5052433;28;20029;-85
2022/01/26 02:05:38;;;;;;;30.70;13.38;;;;;;;2.12;90.57;101487.78;5054408;28;20450;-86
2022/01/26 02:08:04;;;;;;;29.40;14.20;;;;;;;2.10;90.59;101489.53;5054022;28;20412;-86
2022/01/26 02:10:31;;;;;;;31.05;12.98;;;;;;;2.10;90.70;101480.91;5054340;28;20055;-85
2022/01/26 02:13:04;;;;;;;28.25;13.32;;;;;;;2.07;90.50;101486.97;5053489;28;20131;-85
2022/01/26 02:15:39;;;;;;;26.63;12.77;;;;;;;2.06;90.64;101482.69;5054259;28;20028;-85
2022/01/26 02:18:31;;;;;;;29.67;12.95;;;;;;;2.07;90.16;101484.38;5042065;28;20090;-86
2022/01/26 02:21:16;;;;;;;31.15;13.40;;;;;;;2.08;90.71;101480.94;5052320;28;20041;-86
2022/01/26 03:06:47;;;;;;;41.38;16.73;;;;;;;2.01;90.45;101424.97;5051280;28;20020;-86
2022/01/26 03:09:17;;;;;;;43.25;16.60;;;;;;;2.04;89.71;101424.06;5054785;28;20033;-86
2022/01/26 03:11:45;;;;;;;43.78;17.98;;;;;;;2.06;89.94;101430.09;5046056;28;20033;-85
2022/01/26 03:14:39;;;;;;;38.37;16.23;;;;;;;2.07;90.09;101429.22;5052306;28;20045;-85
2022/01/26 03:17:20;;;;;;;48.90;17.80;;;;;;;2.01;89.33;101429.31;5048931;28;20069;-85
2022/01/26 03:19:50;;;;;;;43.78;17.08;;;;;;;2.00;89.24;101432.75;5049544;28;20037;-86
2022/01/26 03:28:13;;;;;;;44.83;16.38;;;;;;;1.98;90.12;101434.50;5051513;28;20035;-85
2022/01/26 03:30:47;;;;;;;47.45;17.40;;;;;;;1.96;89.92;101442.28;5047936;28;20052;-87
2022/01/26 03:33:35;;;;;;;44.38;17.25;;;;;;;1.94;89.27;101459.56;5050716;28;20122;-86
2022/01/26 03:36:01;;;;;;;47.30;17.52;;;;;;;2.00;89.56;101449.13;5050529;28;20032;-87
2022/01/26 03:38:40;;;;;;;48.43;16.50;;;;;;;2.00;89.48;101440.50;5055963;28;20029;-87
2022/01/26 03:41:18;;;;;;;48.45;17.63;;;;;;;2.03;89.87;101436.16;5052082;28;20068;-85
2022/01/26 03:43:43;;;;;;;45.78;17.50;;;;;;;2.04;89.83;101442.19;5035581;28;20033;-86
2022/01/26 03:46:11;;;;;;;46.15;17.02;;;;;;;1.97;89.59;101435.41;5051897;28;20370;-87
2022/01/26 03:48:37;;;;;;;47.45;18.33;;;;;;;1.98;89.87;101429.34;5052976;28;20085;-86
2022/01/26 03:51:02;;;;;;;51.67;18.10;;;;;;;1.94;89.60;101429.38;5052641;28;20047;-87
2022/01/26 03:53:28;;;;;;;51.70;19.52;;;;;;;1.91;89.59;101425.97;5051329;28;20459;-87
2022/01/26 03:55:54;;;;;;;45.38;18.55;;;;;;;1.91;89.98;101419.06;5049489;28;20056;-88
2022/01/26 03:58:19;;;;;;;43.78;16.88;;;;;;;1.90;90.20;101432.88;5052236;28;20370;-86
2022/01/26 04:00:45;;;;;;;52.35;18.80;;;;;;;1.94;89.92;101428.53;5047148;28;20096;-87
2022/01/26 04:03:10;;;;;;;45.97;16.20;;;;;;;1.91;90.31;101421.66;5048994;28;20131;-87
2022/01/26 04:05:36;;;;;;;51.65;18.75;;;;;;;1.91;90.28;101426.81;5054392;28;20362;-86
2022/01/26 04:08:08;;;;;;;46.85;16.98;;;;;;;1.94;90.07;101421.63;5053658;28;20098;-86
2022/01/26 04:10:49;;;;;;;47.90;17.65;;;;;;;1.96;89.55;101419.00;5045974;28;20412;-86
2022/01/26 04:13:14;;;;;;;48.35;18.08;;;;;;;1.94;89.81;101418.19;5056951;28;20036;-88
2022/01/26 04:15:40;;;;;;;49.33;17.73;;;;;;;1.99;89.71;101426.72;5058541;28;20115;-86
2022/01/26 04:18:09;;;;;;;42.42;16.10;;;;;;;1.99;89.44;101426.72;5058849;28;20068;-86
2022/01/26 04:20:39;;;;;;;49.35;17.75;;;;;;;1.97;89.50;101423.31;5055619;28;20037;-88
2022/01/26 04:25:46;;;;;;;48.70;16.85;;;;;;;1.93;89.86;101404.41;5054470;28;20033;-87
2022/01/26 04:28:17;;;;;;;49.25;17.05;;;;;;;1.96;89.28;101402.63;5057712;28;20377;-87
2022/01/26 04:30:43;;;;;;;51.50;17.85;;;;;;;1.99;89.29;101408.63;5055923;28;20021;-86
2022/01/26 04:33:09;;;;;;;46.17;16.60;;;;;;;1.98;89.51;101416.41;5055133;28;20474;-88
2022/01/26 04:35:43;;;;;;;49.83;16.75;;;;;;;1.96;89.81;101415.56;5055478;28;20067;-87
2022/01/26 04:40:57;;;;;;;45.97;16.15;;;;;;;1.95;89.52;101404.34;5034647;28;20077;-86
2022/01/26 04:43:27;;;;;;;58.40;19.33;;;;;;;1.98;89.69;101398.31;5056941;28;20029;-87
2022/01/26 04:45:52;;;;;;;53.63;17.55;;;;;;;1.95;89.49;101401.78;5048344;28;20029;-87
2022/01/26 04:48:20;;;;;;;47.78;16.92;;;;;;;1.98;89.48;101403.47;5057346;28;20029;-86
2022/01/26 04:50:46;;;;;;;49.75;17.00;;;;;;;1.92;89.40;101396.63;5055931;28;20040;-86
2022/01/26 04:53:11;;;;;;;53.40;17.25;;;;;;;1.88;90.37;101394.97;5048121;28;20044;-88
2022/01/26 04:55:37;;;;;;;50.53;17.15;;;;;;;1.87;89.80;101388.09;5054283;28;20037;-87
2022/01/26 04:58:02;;;;;;;45.95;16.65;;;;;;;1.91;90.04;101382.00;5054423;28;20104;-87
2022/01/26 05:00:30;;;;;;;44.50;16.33;;;;;;;1.94;89.46;101377.66;5055873;28;20089;-88
2022/01/26 05:02:55;;;;;;;44.60;16.55;;;;;;;2.00;89.69;101363.75;5055513;28;20671;-87
2022/01/26 05:05:23;;;;;;;41.65;16.67;;;;;;;2.00;88.97;101362.91;5056528;28;20029;-88
2022/01/26 05:07:48;;;;;;;47.17;15.68;;;;;;;2.03;88.93;101360.28;5041375;28;20033;-88
2022/01/26 05:10:19;;;;;;;39.78;15.00;;;;;;;2.06;88.77;101357.66;5056602;28;20119;-87
2022/01/26 05:12:44;;;;;;;38.30;13.52;;;;;;;2.01;88.70;101357.72;5055844;28;20025;-86
2022/01/26 05:15:10;;;;;;;42.10;15.63;;;;;;;2.00;88.95;101358.59;5054720;28;20037;-86
2022/01/26 05:17:37;;;;;;;46.97;16.15;;;;;;;1.97;88.48;101365.56;5055212;28;20080;-86
2022/01/26 05:20:07;;;;;;;45.30;15.75;;;;;;;1.94;88.43;101359.53;5057626;28;20037;-87
2022/01/26 05:22:43;;;;;;;41.55;14.57;;;;;;;1.98;89.31;101364.69;5060992;28;20032;-86
2022/01/26 05:25:13;;;;;;;45.92;15.63;;;;;;;2.00;89.11;101368.06;5058264;28;20037;-84
2022/01/26 05:27:41;;;;;;;43.17;15.57;;;;;;;1.97;89.48;101366.41;5058835;28;20020;-85
2022/01/26 05:30:19;;;;;;;38.35;15.52;;;;;;;2.00;89.66;101360.31;5058449;28;20112;-88
2022/01/26 05:32:45;;;;;;;38.85;14.70;;;;;;;2.03;88.94;101362.88;5040735;28;20037;-88
2022/01/26 05:35:14;;;;;;;45.45;15.38;;;;;;;1.99;88.89;101363.78;5057333;28;20041;-87
2022/01/26 05:37:39;;;;;;;42.60;15.25;;;;;;;1.91;89.60;101374.25;5059488;28;20097;-86
2022/01/26 05:40:07;;;;;;;42.72;15.43;;;;;;;1.85;89.22;101376.91;5055759;28;20359;-86
2022/01/26 05:42:35;;;;;;;41.25;14.75;;;;;;;1.86;89.93;101378.63;5055148;28;20047;-87
2022/01/26 05:45:04;;;;;;;39.55;14.75;;;;;;;1.82;89.32;101377.81;5038159;28;20061;-86
2022/01/26 05:47:31;;;;;;;;;;;;;;;1.80;90.16;101381.28;5040183;28;20033;-86
2022/01/26 05:49:58;;;;;;;40.38;14.15;;;;;;;1.80;90.24;101376.13;5050728;28;19920;-86
2022/01/26 05:52:23;;;;;;;34.58;13.82;;;;;;;1.78;90.01;101378.75;5047046;28;20502;-88
2022/01/26 05:54:49;;;;;;;44.97;15.65;;;;;;;1.74;90.25;101389.13;5065798;28;20037;-87
2022/01/26 05:57:17;;;;;;;45.40;15.57;;;;;;;1.73;90.25;101374.50;5057586;28;20055;-88
2022/01/26 05:59:54;;;;;;;43.80;14.82;;;;;;;1.73;90.13;101375.34;5056249;28;20043;-90
2022/01/26 06:02:22;;;;;;;44.50;14.48;;;;;;;1.70;90.45;101376.22;5052991;28;20053;-87
2022/01/26 06:04:48;;;;;;;43.45;15.10;;;;;;;1.81;92.15;101372.66;5052988;28;20033;-88
2022/01/26 06:07:16;;;;;;;44.40;15.48;;;;;;;1.71;91.25;101379.69;5053774;28;20091;-88
2022/01/26 06:09:44;;;;;;;38.95;14.95;;;;;;;1.72;91.18;101377.97;5055237;28;20056;-89
2022/01/26 06:12:09;;;;;;;37.38;15.05;;;;;;;1.69;90.54;101374.53;5052156;28;20178;-86
2022/01/26 06:14:35;;;;;;;43.42;15.57;;;;;;;1.73;90.71;101377.06;5052219;28;20123;-87
2022/01/26 06:17:01;;;;;;;38.58;15.70;;;;;;;1.69;90.36;101387.44;5061052;28;20045;-86
2022/01/26 06:19:29;;;;;;;40.17;15.77;;;;;;;1.72;91.45;101403.81;5051975;28;20055;-86
2022/01/26 06:21:54;;;;;;;41.78;15.50;;;;;;;1.72;90.96;101399.50;5066554;28;20028;-88
2022/01/26 06:24:20;;;;;;;38.72;15.77;;;;;;;1.70;91.49;101398.66;5058243;28;20521;-87
2022/01/26 06:26:46;;;;;;;41.20;14.57;;;;;;;1.69;91.23;101392.63;5055290;28;20035;-87
2022/01/26 06:29:11;;;;;;;32.80;12.95;;;;;;;1.68;90.95;101395.25;5055145;28;20112;-88
2022/01/26 06:31:42;;;;;;;36.80;13.75;;;;;;;1.68;91.37;101385.75;5058855;28;20024;-87
2022/01/26 06:34:10;;;;;;;37.03;13.20;;;;;;;1.66;91.31;101390.06;5055506;28;20031;-87
2022/01/26 06:36:37;;;;;;;34.47;13.77;;;;;;;1.68;91.26;101378.00;5055602;28;20035;-88
2022/01/26 06:39:03;;;;;;;38.92;14.60;;;;;;;1.68;91.32;101374.56;5052678;28;20037;-87
2022/01/26 06:41:28;;;;;;;40.60;14.20;;;;;;;1.63;91.31;101369.44;5053256;28;20040;-87
2022/01/26 06:44:04;;;;;;;35.70;12.50;;;;;;;1.66;91.11;101371.13;5066368;28;20032;-86
2022/01/26 06:46:41;;;;;;;35.97;13.88;;;;;;;1.61;90.72;101370.34;5074100;28;20028;-86
2022/01/26 06:51:40;;;;;;;40.75;13.93;;;;;;;1.66;90.62;101373.72;5057211;28;20469;-86
2022/01/26 06:54:05;;;;;;;31.17;13.18;;;;;;;1.69;90.41;101371.94;5053916;28;20037;-86
2022/01/26 06:56:31;;;;;;;34.97;12.57;;;;;;;1.70;90.40;101358.13;5056923;28;20025;-86
2022/01/26 06:58:56;;;;;;;37.55;13.57;;;;;;;1.74;90.50;101352.91;5054657;28;20120;-86
2022/01/26 07:01:22;;;;;;;43.00;14.25;;;;;;;1.75;90.40;101340.00;5051165;28;20032;-89
2022/01/26 07:03:47;;;;;;;35.97;13.63;;;;;;;1.75;90.12;101347.75;5057925;28;20088;-87
2022/01/26 07:06:14;;;;;;;36.90;13.27;;;;;;;1.72;89.69;101354.69;5053634;28;20044;-88
2022/01/26 07:08:39;;;;;;;30.17;13.27;;;;;;;1.76;90.06;101339.09;5054181;28;20029;-87
2022/01/26 07:11:05;;;;;;;36.47;13.13;;;;;;;1.77;89.89;101353.72;5054117;28;20492;-87
2022/01/26 07:13:31;;;;;;;32.25;12.02;;;;;;;1.72;89.29;101350.38;5052609;28;20040;-87
2022/01/26 07:21:28;;;;;;;30.80;11.82;;;;;;;1.75;89.61;101345.16;5052646;28;20441;-88
2022/01/26 07:23:55;;;;;;;35.10;12.50;;;;;;;1.79;89.41;101353.72;5053689;28;20037;-87
2022/01/26 07:26:21;;;;;;;29.35;13.75;;;;;;;1.79;89.36;101362.34;5052347;28;20162;-87
2022/01/26 07:28:51;;;;;;;30.45;11.95;;;;;;;1.78;89.29;101365.81;5052481;28;20043;-86
2022/01/26 07:31:17;;;;;;;31.50;12.35;;;;;;;1.75;89.25;101360.69;5055169;28;20471;-88
2022/01/26 07:33:42;;;;;;;28.40;12.98;;;;;;;1.79;89.21;101367.50;5054310;28;20025;-89
2022/01/26 07:36:08;;;;;;;29.13;13.02;;;;;;;1.78;89.26;101367.50;5042557;28;20117;-87
2022/01/26 07:38:34;;;;;;;27.65;11.85;;;;;;;1.84;89.38;101372.63;5046534;28;20029;-86
2022/01/26 07:41:02;;;;;;;30.55;11.95;;;;;;;1.82;89.16;101372.66;5057188;28;20036;-86
2022/01/26 07:43:28;;;;;;;31.35;12.77;;;;;;;1.80;88.85;101374.38;5056051;28;20052;-87
2022/01/26 07:45:56;;;;;;;32.85;11.50;;;;;;;1.81;88.64;101362.31;5056097;28;20021;-87
2022/01/26 07:52:03;;;;;;;32.45;11.93;;;;;;;1.77;88.62;101376.16;5007210;28;20556;-87
2022/01/26 07:54:31;;;;;;;28.63;12.07;;;;;;;1.75;88.97;101373.59;5014788;28;20041;-87
2022/01/26 07:57:01;;;;;;;31.52;13.15;;;;;;;1.66;89.10;101363.38;4998843;28;20057;-87
2022/01/26 07:59:27;;;;;;;29.45;12.20;;;;;;;1.70;89.53;101358.13;4997081;28;20054;-88
2022/01/26 08:02:27;;;;;;;;;;;;;;;;;;;;;
2022/01/26 08:04:53;;;;;;;31.35;12.60;;;;;;;1.78;89.00;101365.81;5000144;28;20122;-87
2022/01/26 08:07:21;;;;;;;30.80;12.73;;;;;;;1.80;88.94;101371.81;4984975;28;20062;-88
2022/01/26 08:10:10;;;;;;;31.60;13.23;;;;;;;1.82;88.72;101361.47;5005527;28;20061;-87
2022/01/26 08:12:37;;;;;;;33.45;13.20;;;;;;;1.85;88.02;101345.88;4986351;28;20934;-87
2022/01/26 08:15:03;;;;;;;32.53;12.35;;;;;;;1.93;87.92;101354.41;5001706;28;20030;-89
2022/01/26 08:17:29;;;;;;;31.92;13.15;;;;;;;1.97;88.46;101352.63;4981028;28;20061;-86
2022/01/26 08:19:56;;;;;;;30.65;12.98;;;;;;;2.02;88.11;101356.84;4999418;28;20066;-87
2022/01/26 08:22:27;;;;;;;32.63;12.88;;;;;;;2.03;88.06;101360.28;5023971;28;20118;-88
2022/01/26 08:24:55;;;;;;;34.63;13.55;;;;;;;2.04;88.26;101360.28;5073356;28;20196;-88
2022/01/26 08:27:23;;;;;;;30.98;13.48;;;;;;;2.06;87.66;101357.66;5054432;28;20017;-86
2022/01/26 08:29:52;;;;;;;32.53;13.88;;;;;;;2.07;87.83;101355.03;5053899;28;20045;-88
2022/01/26 08:32:18;;;;;;;32.03;13.25;;;;;;;2.02;87.46;101354.25;5054318;28;20040;-87
2022/01/26 08:35:04;;;;;;;32.17;11.57;;;;;;;1.96;87.64;101356.06;5046648;28;20136;-87
2022/01/26 08:37:41;;;;;;;31.85;12.70;;;;;;;1.96;87.60;101353.47;5054981;28;20056;-88
2022/01/26 08:40:08;;;;;;;33.13;13.13;;;;;;;1.97;87.67;101369.00;5058984;28;20105;-88
2022/01/26 08:42:34;;;;;;;31.27;11.93;;;;;;;1.87;87.20;101368.25;5054587;28;20052;-90
2022/01/26 08:45:00;;;;;;;32.33;12.30;;;;;;;1.87;87.56;101364.81;5047202;28;20095;-87
2022/01/26 08:47:37;;;;;;;30.52;12.52;;;;;;;1.87;86.94;101367.41;5056305;28;20179;-87
2022/01/26 08:50:09;;;;;;;35.53;13.88;;;;;;;1.85;87.21;101361.38;5037953;28;20120;-88
2022/01/26 08:53:03;;;;;;;31.75;12.82;;;;;;;1.90;87.06;101352.72;5030560;28;20125;-86
2022/01/26 08:55:52;;;;;;;31.23;13.60;;;;;;;1.89;87.66;101350.13;5044813;28;20105;-92
2022/01/26 08:58:19;;;;;;;39.13;13.88;;;;;;;1.92;86.85;101360.44;5055656;28;20060;-87
2022/01/26 09:00:52;;;;;;;33.25;12.27;;;;;;;1.93;87.11;101365.59;5055924;28;20031;-87
2022/01/26 09:03:21;;;;;;;37.03;12.82;;;;;;;2.00;86.43;101353.41;5047774;28;20037;-87
2022/01/26 09:05:53;;;;;;;29.63;12.90;;;;;;;2.04;86.30;101354.22;5055158;28;20070;-87
2022/01/26 09:08:19;;;;;;;31.90;13.40;;;;;;;2.05;85.60;101356.81;5053377;28;20033;-87
2022/01/26 09:10:45;;;;;;;30.85;11.90;;;;;;;2.08;85.46;101364.53;5054897;28;20063;-88
2022/01/26 09:13:20;;;;;;;33.42;13.20;;;;;;;2.13;85.25;101372.22;5057752;28;20032;-87
2022/01/26 09:15:48;;;;;;;31.13;11.68;;;;;;;2.12;84.81;101373.94;5041303;28;20469;-87
2022/01/26 09:18:18;;;;;;;30.48;12.18;;;;;;;2.12;85.20;101373.94;5058705;28;20041;-87
2022/01/26 09:20:47;;;;;;;35.47;12.15;;;;;;;2.07;85.11;101369.69;5038015;28;20067;-88
2022/01/26 09:23:27;;;;;;;31.58;12.68;;;;;;;2.12;85.25;101368.78;5057434;28;20472;-88
2022/01/26 09:25:55;;;;;;;32.13;12.02;;;;;;;2.08;83.91;101351.59;5051533;28;20079;-88
2022/01/26 09:28:24;;;;;;;39.63;13.18;;;;;;;2.14;84.17;101350.63;5060412;28;20047;-87
2022/01/26 09:31:07;;;;;;;31.10;12.52;;;;;;;2.07;84.41;101365.38;5060039;28;20057;-87
2022/01/26 09:33:35;;;;;;;31.50;11.88;;;;;;;2.09;84.28;101367.97;5058883;28;20025;-87
2022/01/26 09:36:07;;;;;;;28.13;10.10;;;;;;;2.09;83.93;101361.06;5054230;28;20045;-86
2022/01/26 09:38:33;;;;;;;32.70;11.60;;;;;;;2.06;83.89;101368.00;5057601;28;20324;-87
2022/01/26 09:40:59;;;;;;;37.33;10.90;;;;;;;2.10;83.48;101367.06;5054687;28;20041;-87
2022/01/26 09:43:27;;;;;;;29.98;11.88;;;;;;;2.12;83.88;101373.94;5055127;28;20416;-87
2022/01/26 09:45:53;;;;;;;26.27;10.00;;;;;;;2.12;83.10;101366.19;5051444;28;20092;-86
2022/01/26 09:48:52;;;;;;;32.10;11.65;;;;;;;2.15;83.38;101353.22;5053065;28;20055;-89
2022/01/26 09:51:20;;;;;;;30.27;11.40;;;;;;;2.21;83.84;101372.09;5045672;28;20063;-85
2022/01/26 09:53:45;;;;;;;32.20;11.15;;;;;;;2.16;82.31;101354.91;5055314;28;20052;-86
2022/01/26 09:56:11;;;;;;;35.22;12.15;;;;;;;2.12;82.15;101352.41;5053946;28;20073;-87
2022/01/26 09:58:36;;;;;;;31.23;10.98;;;;;;;2.18;82.73;101360.91;5051688;28;20045;-86
2022/01/26 10:01:05;;;;;;;32.67;11.15;;;;;;;2.09;82.60;101373.13;5056553;28;20050;-88
2022/01/26 10:03:33;;;;;;;28.00;11.23;;;;;;;2.00;83.02;101374.09;5054793;28;20032;-87
2022/01/26 10:06:07;;;;;;;34.13;11.32;;;;;;;2.06;82.71;101378.34;5057910;28;20041;-87
2022/01/26 10:19:04;;;;;;;30.95;11.07;;;;;;;1.90;83.77;101372.53;5050775;28;20025;-87
2022/01/26 10:21:46;;;;;;;32.15;10.50;;;;;;;1.80;83.86;101389.91;5070785;28;20025;-87
2022/01/26 10:24:12;;;;;;;36.83;11.68;;;;;;;1.88;84.63;101374.28;5052637;28;20075;-85
2022/01/26 10:26:48;;;;;;;30.40;11.60;;;;;;;1.94;84.46;101371.63;5057498;28;20037;-85
2022/01/26 10:29:16;;;;;;;44.22;12.57;;;;;;;1.98;84.27;101370.69;5055046;28;20037;-86
2022/01/26 10:31:42;;;;;;;35.05;11.90;;;;;;;2.00;84.15;101363.75;5054039;28;20546;-86
2022/01/26 10:34:09;;;;;;;31.73;11.27;;;;;;;2.02;83.59;101359.44;5051999;28;20060;-87
2022/01/26 10:36:42;;;;;;;29.40;9.65;;;;;;;2.02;83.18;101343.91;5055787;28;20086;-86
2022/01/26 10:39:27;;;;;;;32.17;11.85;;;;;;;2.04;83.82;101349.06;5046507;28;20106;-86
2022/01/26 10:41:58;;;;;;;39.03;12.80;;;;;;;2.06;83.88;101343.00;5054256;28;20453;-85
2022/01/26 10:44:36;;;;;;;32.92;12.75;;;;;;;2.11;84.62;101341.22;5054356;28;20033;-86
2022/01/26 10:47:05;;;;;;;33.05;13.57;;;;;;;2.07;85.36;101342.09;5054441;28;20044;-85
2022/01/26 10:52:23;;;;;;;31.85;13.18;;;;;;;2.05;85.97;101341.28;5056976;28;20381;-85
2022/01/26 10:54:52;;;;;;;35.08;13.55;;;;;;;1.98;86.06;101333.63;5054771;28;20017;-88
2022/01/26 10:57:18;;;;;;;32.65;13.57;;;;;;;1.89;86.34;101334.59;5055802;28;20021;-86
2022/01/26 10:59:47;;;;;;;32.50;13.18;;;;;;;1.80;87.10;101338.19;5052850;28;20040;-87
2022/01/26 11:02:14;;;;;;;33.23;12.90;;;;;;;1.82;87.04;101338.19;5053549;28;20025;-86
2022/01/26 11:04:42;;;;;;;28.67;12.30;;;;;;;1.85;86.83;101336.38;5052906;28;20963;-86
2022/01/26 11:07:13;;;;;;;36.38;13.35;;;;;;;1.90;86.99;101344.94;5052844;28;20071;-84
2022/01/26 11:09:41;;;;;;;32.67;14.18;;;;;;;1.88;86.58;101349.28;5048136;28;20041;-86
2022/01/26 11:12:10;;;;;;;28.95;11.98;;;;;;;1.84;86.58;101341.59;5051433;28;20121;-87
2022/01/26 11:14:39;;;;;;;36.38;13.77;;;;;;;1.86;86.28;101339.84;5039517;28;20040;-84
2022/01/26 11:17:05;;;;;;;29.20;13.13;;;;;;;1.77;85.74;101337.38;5044706;28;20112;-86
2022/01/26 11:19:45;;;;;;;33.17;13.70;;;;;;;1.79;86.01;101343.38;5047284;28;20029;-85
2022/01/26 11:22:12;;;;;;;32.60;14.55;;;;;;;1.82;86.10;101356.28;5053367;28;20052;-87
2022/01/26 11:24:46;;;;;;;34.45;15.15;;;;;;;1.77;86.97;101339.97;5052263;28;20031;-86
2022/01/26 11:27:13;;;;;;;34.72;15.25;;;;;;;1.77;86.54;101350.31;5051098;28;20086;-85
2022/01/26 11:29:45;;;;;;;36.13;16.27;;;;;;;1.81;86.63;101355.41;5053483;28;20064;-85
2022/01/26 11:32:19;;;;;;;38.45;15.93;;;;;;;1.80;87.37;101358.88;5047999;28;20036;-86
2022/01/26 11:34:51;;;;;;;35.05;14.63;;;;;;;1.79;87.06;101362.34;5047997;28;20062;-88
2022/01/26 11:46:07;;;;;;;30.88;12.82;;;;;;;1.62;86.45;101390.13;4983594;28;20110;-87
2022/01/26 11:48:32;;;;;;;36.83;12.57;;;;;;;1.58;86.68;101381.56;4971104;28;20149;-87
2022/01/26 11:51:00;;;;;;;28.40;11.82;;;;;;;1.66;86.27;101389.22;4982801;28;20044;-87
2022/01/26 11:53:27;;;;;;;27.13;11.43;;;;;;;1.64;86.30;101381.50;4991106;28;20522;-85
2022/01/26 11:56:03;;;;;;;26.42;11.23;;;;;;;1.64;85.63;101386.66;4985959;28;20042;-85
2022/01/26 11:58:33;;;;;;;26.58;9.75;;;;;;;1.59;85.55;101377.25;4991056;28;20094;-86
2022/01/26 12:01:13;;;;;;;24.80;10.43;;;;;;;1.56;85.57;101383.31;4964350;28;20040;-86
2022/01/26 12:03:45;;;;;;;24.75;10.07;;;;;;;1.51;85.65;101372.16;4989196;28;20039;-86
2022/01/26 12:06:25;;;;;;;21.13;8.18;;;;;;;1.57;85.46;101379.00;4988523;28;20045;-86
2022/01/26 12:08:50;;;;;;;;;;;;;;;1.50;85.26;101367.88;4988029;28;20078;-87
2022/01/26 12:11:16;;;;;;;21.13;8.90;;;;;;;1.57;84.75;101371.25;4987530;28;19922;-86
2022/01/26 12:13:44;;;;;;;22.02;8.50;;;;;;;1.56;85.27;101357.47;4987372;28;20034;-86
2022/01/26 12:16:22;;;;;;;25.95;9.93;;;;;;;1.54;84.79;101366.13;4990422;28;20519;-87
2022/01/26 12:38:09;;;;;;;20.83;9.75;;;;;;;1.54;85.72;101363.53;5053590;28;20051;-86
2022/01/26 12:43:40;;;;;;;19.73;8.95;;;;;;;1.58;85.79;101350.53;5057985;28;20063;-86
2022/01/26 12:46:09;;;;;;;26.20;9.93;;;;;;;1.57;86.06;101346.25;5059857;28;20472;-85
2022/01/26 12:48:38;;;;;;;28.08;10.35;;;;;;;1.61;85.60;101347.06;5056642;28;20120;-87
2022/01/26 12:51:10;;;;;;;25.80;9.95;;;;;;;1.57;86.32;101346.25;5057591;28;20099;-85
2022/01/26 12:53:40;;;;;;;30.67;11.43;;;;;;;1.62;85.71;101364.28;5073744;28;20036;-86
2022/01/26 12:56:10;;;;;;;33.42;10.48;;;;;;;1.61;86.05;101352.25;5055934;28;20102;-87
2022/01/26 12:58:39;;;;;;;27.77;10.20;;;;;;;1.62;85.90;101349.63;5055669;28;20039;-84
2022/01/26 13:01:17;;;;;;;31.27;9.98;;;;;;;1.60;85.90;101348.81;5053473;28;20097;-87
2022/01/26 13:03:44;;;;;;;23.20;9.32;;;;;;;1.57;86.22;101333.31;5054553;28;20434;-86
2022/01/26 13:06:23;;;;;;;28.58;11.15;;;;;;;1.54;86.40;101335.94;5061136;28;20036;-85
2022/01/26 13:08:51;;;;;;;28.75;11.43;;;;;;;1.56;86.31;101329.03;5060617;28;20124;-86
2022/01/26 13:11:28;;;;;;;33.03;9.90;;;;;;;1.55;86.64;101334.22;5061719;28;21307;-85
2022/01/26 13:14:42;;;;;;;26.13;10.18;;;;;;;1.55;86.25;101340.22;5062582;28;20111;-85
2022/01/26 13:22:55;;;;;;;;;;;;;;;1.54;87.52;101307.50;5055055;28;20171;-86
2022/01/26 13:42:13;;;;;;;33.13;10.70;;;;;;;1.50;87.98;101273.97;5048510;28;20048;-88
2022/01/26 13:45:04;;;;;;;37.65;11.00;;;;;;;1.40;88.88;101276.69;5052932;28;20032;-87
2022/01/26 13:53:04;;;;;;;34.65;12.10;;;;;;;1.42;88.25;101284.44;5046838;28;20090;-87
2022/01/26 14:01:20;;;;;;;48.72;12.05;;;;;;;1.47;87.26;101272.28;4997542;28;20046;-88
2022/01/26 14:03:56;;;;;;;33.13;12.55;;;;;;;1.42;87.85;101259.44;4999978;28;20033;-90
2022/01/26 14:06:22;;;;;;;47.00;14.48;;;;;;;1.37;87.03;101266.41;4986794;28;20038;-87
2022/01/26 14:08:53;;;;;;;34.20;12.35;;;;;;;1.38;86.76;101270.69;4996135;28;20049;-87
2022/01/26 14:11:21;;;;;;;40.40;14.35;;;;;;;1.31;87.10;101260.47;4996372;28;20116;-87
2022/01/26 14:13:48;;;;;;;34.95;14.27;;;;;;;1.29;86.39;101246.69;5003872;28;20076;-87
2022/01/26 14:16:21;;;;;;;46.55;15.48;;;;;;;1.31;86.48;101247.53;4998169;28;20034;-88
2022/01/26 14:24:27;;;;;;;37.22;14.68;;;;;;;1.28;86.50;101237.25;4984669;28;20050;-88
2022/01/26 14:26:57;;;;;;;40.33;14.70;;;;;;;1.38;85.79;101244.84;5009388;28;20037;-87
2022/01/26 14:29:56;;;;;;;43.10;17.33;;;;;;;1.37;85.29;101242.28;5007249;28;20069;-86
2022/01/26 14:32:29;;;;;;;39.67;17.83;;;;;;;1.27;85.53;101251.03;5038512;28;20037;-89